Enter the Airport ICAO Code

Search by Airport or City

Current Weather

LEIB | Ibiza Airport

Ibiza, Balearic Islands, Spain

Last Update 33 Minutes Ago

Sky with Few Clouds

Temperature of 23 ēC

Light to Moderate Winds from East

Temperature

23 ēC

Dew Point Temperature

17 ēC

Relative Humidity

69.12 %

Wind Direction

East (100ē, Ranging from 040ē to 160ē)

Wind Velocity

13 km/h (07 kt)

Gusts

None

Visibility

Greater than 10 Kilometers

Sea Level Pressure

1013 hPa (Hectopascals)

Layers of Clouds

5% to 30% of Sky Covered from 610 mts (2000 ft) Above Ground Level.

5% to 30% of Sky Covered with Cumulonimbus from 610 mts (2000 ft) Above Ground Level.

METAR LEIB 031500Z 10007KT 040V160 9999 FEW020 FEW020CB 23/17 Q1013 NOSIG

Weather Forecast

LEIB | Ibiza Airport

Ibiza, Balearic Islands, Spain

Forecast valid for the next 23 Hours

From now on it is expected:

Sky with Few Clouds

Moderate Winds from East

In 10 hours it is expected the begining of 5 hours with intermittent periods of:

Light Winds from Variable Directions

Maximum Temperature

25 ēC in 20 Hours

Minimum Temperature

16 ēC in 13 Hours

TAF LEIB 031400Z 0315/0415 09010KT 9999 FEW020 TX25/0412Z TN16/0405Z TEMPO 0402/0407 VRB04KT